Time,TemperatureF,DewpointF,PressureIn,WindDirection,WindDirectionDegrees,WindSpeedMPH,WindSpeedGustMPH,Humidity,HourlyPrecipIn,Conditions,Clouds,dailyrainin,SoftwareType,DateUTC
2013-05-18 00:03:00,53.0,38.0,30.18,NW,321,1.0,2.0,56,0.00,,,0.00,,2013-05-18 04:03:00,
2013-05-18 00:12:00,53.0,38.0,30.18,NW,321,1.0,2.0,56,0.00,,,0.00,,2013-05-18 04:12:00,
2013-05-18 00:23:00,53.0,39.0,30.18,NW,326,2.0,4.0,58,0.00,,,0.00,,2013-05-18 04:23:00,
2013-05-18 00:33:00,52.0,39.0,30.18,NW,319,4.0,6.0,60,0.00,,,0.00,,2013-05-18 04:33:00,
2013-05-18 00:43:00,52.0,39.0,30.18,NW,319,4.0,6.0,60,0.00,,,0.00,,2013-05-18 04:43:00,
2013-05-18 00:52:00,52.0,39.0,30.19,NNE,31,2.0,7.0,60,0.00,,,0.00,,2013-05-18 04:52:00,
2013-05-18 01:02:00,52.0,39.0,30.19,North,356,1.0,3.0,60,0.00,,,0.00,,2013-05-18 05:02:00,
2013-05-18 01:13:00,52.0,39.0,30.19,North,356,1.0,3.0,60,0.00,,,0.00,,2013-05-18 05:13:00,
2013-05-18 01:22:00,52.0,39.0,30.19,NNE,18,1.0,3.0,60,0.00,,,0.00,,2013-05-18 05:22:00,
2013-05-18 01:32:00,52.0,39.0,30.18,NNW,347,0.0,4.0,62,0.00,,,0.00,,2013-05-18 05:32:00,
2013-05-18 01:42:00,52.0,39.0,30.18,NNW,347,0.0,4.0,62,0.00,,,0.00,,2013-05-18 05:42:00,
2013-05-18 01:52:00,51.0,39.0,30.18,NNW,341,2.0,4.0,63,0.00,,,0.00,,2013-05-18 05:52:00,
2013-05-18 02:02:00,51.0,38.0,30.18,ESE,110,0.0,4.0,61,0.00,,,0.00,,2013-05-18 06:02:00,
2013-05-18 02:11:00,51.0,38.0,30.18,ESE,110,0.0,4.0,61,0.00,,,0.00,,2013-05-18 06:11:00,
2013-05-18 02:22:00,51.0,39.0,30.18,NNE,20,1.0,5.0,63,0.00,,,0.00,,2013-05-18 06:22:00,
2013-05-18 02:32:00,51.0,39.0,30.18,NNW,337,1.0,6.0,64,0.00,,,0.00,,2013-05-18 06:32:00,
2013-05-18 02:42:00,51.0,39.0,30.18,NNW,337,1.0,6.0,64,0.00,,,0.00,,2013-05-18 06:42:00,
2013-05-18 02:52:00,51.0,39.0,30.17,North,6,1.0,3.0,64,0.00,,,0.00,,2013-05-18 06:52:00,
2013-05-18 03:01:00,50.0,39.0,30.17,NNW,347,3.0,5.0,65,0.00,,,0.00,,2013-05-18 07:01:00,
2013-05-18 03:12:00,50.0,39.0,30.17,NNW,347,3.0,5.0,65,0.00,,,0.00,,2013-05-18 07:12:00,
2013-05-18 03:22:00,50.0,39.0,30.17,NNE,25,1.0,4.0,66,0.00,,,0.00,,2013-05-18 07:22:00,
2013-05-18 03:32:00,50.0,39.0,30.17,NNE,20,0.0,2.0,65,0.00,,,0.00,,2013-05-18 07:32:00,
2013-05-18 03:42:00,50.0,39.0,30.17,NNE,20,0.0,2.0,65,0.00,,,0.00,,2013-05-18 07:42:00,
2013-05-18 03:52:00,50.0,39.0,30.18,North,6,0.0,2.0,65,0.00,,,0.00,,2013-05-18 07:52:00,
2013-05-18 04:02:00,50.0,39.0,30.18,North,359,0.0,1.0,65,0.00,,,0.00,,2013-05-18 08:02:00,
2013-05-18 04:11:00,50.0,39.0,30.18,North,359,0.0,1.0,65,0.00,,,0.00,,2013-05-18 08:11:00,
2013-05-18 04:21:00,49.0,40.0,30.18,NNW,342,3.0,5.0,70,0.00,,,0.00,,2013-05-18 08:21:00,
2013-05-18 04:32:00,49.0,40.0,30.18,North,354,1.0,5.0,70,0.00,,,0.00,,2013-05-18 08:32:00,
2013-05-18 04:42:00,49.0,40.0,30.18,North,354,1.0,5.0,70,0.00,,,0.00,,2013-05-18 08:42:00,
2013-05-18 04:52:00,49.0,39.0,30.18,NNE,30,1.0,3.0,69,0.00,,,0.00,,2013-05-18 08:52:00,
2013-05-18 05:02:00,50.0,39.0,30.18,North,358,0.0,1.0,66,0.00,,,0.00,,2013-05-18 09:02:00,
2013-05-18 05:12:00,50.0,39.0,30.18,North,358,0.0,1.0,66,0.00,,,0.00,,2013-05-18 09:12:00,
2013-05-18 05:22:00,49.0,40.0,30.18,NNW,345,1.0,2.0,70,0.00,,,0.00,,2013-05-18 09:22:00,
2013-05-18 05:33:00,49.0,41.0,30.18,NNW,344,2.0,4.0,73,0.00,,,0.00,,2013-05-18 09:33:00,
2013-05-18 05:43:00,49.0,41.0,30.18,NNW,344,2.0,4.0,73,0.00,,,0.00,,2013-05-18 09:43:00,
2013-05-18 05:53:00,49.0,40.0,30.18,North,353,3.0,5.0,71,0.00,,,0.00,,2013-05-18 09:53:00,
2013-05-18 06:03:00,49.0,40.0,30.19,NNE,13,4.0,6.0,72,0.00,,,0.00,,2013-05-18 10:03:00,
2013-05-18 06:12:00,49.0,40.0,30.19,NNE,13,4.0,6.0,72,0.00,,,0.00,,2013-05-18 10:12:00,
2013-05-18 06:23:00,48.0,39.0,30.18,NNE,32,0.0,4.0,70,0.00,,,0.00,,2013-05-18 10:23:00,
2013-05-18 06:33:00,49.0,40.0,30.19,NNW,330,1.0,3.0,70,0.00,,,0.00,,2013-05-18 10:33:00,
2013-05-18 06:42:00,49.0,40.0,30.19,NNW,330,1.0,3.0,70,0.00,,,0.00,,2013-05-18 10:42:00,
2013-05-18 06:52:00,48.0,40.0,30.19,North,5,3.0,5.0,73,0.00,,,0.00,,2013-05-18 10:52:00,
2013-05-18 07:03:00,49.0,40.0,30.19,NNW,340,0.0,1.0,70,0.00,,,0.00,,2013-05-18 11:03:00,
2013-05-18 07:12:00,49.0,40.0,30.19,NNW,340,0.0,1.0,70,0.00,,,0.00,,2013-05-18 11:12:00,
2013-05-18 07:22:00,49.0,40.0,30.19,North,352,0.0,2.0,72,0.00,,,0.00,,2013-05-18 11:22:00,
2013-05-18 07:33:00,48.0,40.0,30.19,North,349,3.0,6.0,75,0.00,,,0.00,,2013-05-18 11:33:00,
2013-05-18 07:42:00,48.0,40.0,30.19,North,349,3.0,6.0,75,0.00,,,0.00,,2013-05-18 11:42:00,
2013-05-18 07:52:00,48.0,41.0,30.19,North,353,4.0,7.0,76,0.00,,,0.00,,2013-05-18 11:52:00,
2013-05-18 08:02:00,48.0,41.0,30.19,NNW,340,2.0,8.0,77,0.00,,,0.00,,2013-05-18 12:02:00,
2013-05-18 08:12:00,48.0,41.0,30.19,NNW,340,2.0,8.0,77,0.00,,,0.00,,2013-05-18 12:12:00,
2013-05-18 08:23:00,48.0,40.0,30.19,NNE,25,3.0,4.0,75,0.00,,,0.00,,2013-05-18 12:23:00,
2013-05-18 08:33:00,49.0,41.0,30.19,North,349,0.0,3.0,73,0.00,,,0.00,,2013-05-18 12:33:00,
2013-05-18 08:42:00,49.0,41.0,30.19,North,349,0.0,3.0,73,0.00,,,0.00,,2013-05-18 12:42:00,
2013-05-18 08:52:00,50.0,41.0,30.19,North,356,0.0,1.0,71,0.00,,,0.00,,2013-05-18 12:52:00,
2013-05-18 09:01:00,51.0,42.0,30.20,NNW,333,1.0,2.0,70,0.00,,,0.00,,2013-05-18 13:01:00,
2013-05-18 09:12:00,51.0,42.0,30.20,NNW,333,1.0,2.0,70,0.00,,,0.00,,2013-05-18 13:12:00,
2013-05-18 09:21:00,52.0,43.0,30.20,NNE,25,0.0,1.0,71,0.00,,,0.00,,2013-05-18 13:21:00,
2013-05-18 09:33:00,52.0,41.0,30.20,NW,313,0.0,4.0,67,0.00,,,0.00,,2013-05-18 13:33:00,
2013-05-18 09:43:00,52.0,41.0,30.20,NW,313,0.0,4.0,67,0.00,,,0.00,,2013-05-18 13:43:00,
2013-05-18 09:52:00,54.0,44.0,30.20,NNW,347,0.0,1.0,70,0.00,,,0.00,,2013-05-18 13:52:00,
2013-05-18 10:04:00,54.0,41.0,30.19,North,355,0.0,2.0,62,0.00,,,0.00,,2013-05-18 14:04:00,
2013-05-18 10:12:00,54.0,41.0,30.19,North,355,0.0,2.0,62,0.00,,,0.00,,2013-05-18 14:12:00,
2013-05-18 10:22:00,57.0,42.0,30.19,ESE,104,2.0,4.0,58,0.00,,,0.00,,2013-05-18 14:22:00,
2013-05-18 10:33:00,57.0,43.0,30.20,South,189,1.0,3.0,59,0.00,,,0.00,,2013-05-18 14:33:00,
2013-05-18 10:42:00,57.0,43.0,30.20,South,189,1.0,3.0,59,0.00,,,0.00,,2013-05-18 14:42:00,
2013-05-18 10:54:00,56.0,42.0,30.20,South,177,2.0,4.0,59,0.00,,,0.00,,2013-05-18 14:54:00,
2013-05-18 11:03:00,56.0,42.0,30.19,South,181,5.0,8.0,60,0.00,,,0.00,,2013-05-18 15:03:00,
2013-05-18 11:13:00,56.0,42.0,30.19,South,181,5.0,8.0,60,0.00,,,0.00,,2013-05-18 15:13:00,
2013-05-18 11:23:00,56.0,43.0,30.19,South,189,4.0,9.0,61,0.00,,,0.00,,2013-05-18 15:23:00,
2013-05-18 11:33:00,56.0,43.0,30.19,South,184,5.0,10.0,61,0.00,,,0.00,,2013-05-18 15:33:00,
2013-05-18 11:43:00,56.0,43.0,30.19,South,184,5.0,10.0,61,0.00,,,0.00,,2013-05-18 15:43:00,
2013-05-18 11:53:00,56.0,43.0,30.19,SE,134,4.0,8.0,62,0.00,,,0.00,,2013-05-18 15:53:00,
2013-05-18 12:03:00,57.0,44.0,30.19,SSE,153,3.0,7.0,62,0.00,,,0.00,,2013-05-18 16:03:00,
2013-05-18 12:13:00,57.0,44.0,30.19,SSE,153,3.0,7.0,62,0.00,,,0.00,,2013-05-18 16:13:00,
2013-05-18 12:22:00,58.0,45.0,30.19,SE,131,3.0,7.0,61,0.00,,,0.00,,2013-05-18 16:22:00,
2013-05-18 12:33:00,59.0,46.0,30.18,SE,127,2.0,8.0,61,0.00,,,0.00,,2013-05-18 16:33:00,
2013-05-18 12:42:00,59.0,46.0,30.18,SE,127,2.0,8.0,61,0.00,,,0.00,,2013-05-18 16:42:00,
2013-05-18 12:52:00,60.0,46.0,30.18,SE,127,2.0,7.0,59,0.00,,,0.00,,2013-05-18 16:52:00,
2013-05-18 13:03:00,61.0,45.0,30.17,SE,131,2.0,6.0,56,0.00,,,0.00,,2013-05-18 17:03:00,
2013-05-18 13:12:00,61.0,45.0,30.17,SE,131,2.0,6.0,56,0.00,,,0.00,,2013-05-18 17:12:00,
2013-05-18 13:22:00,61.0,45.0,30.17,South,176,3.0,8.0,56,0.00,,,0.00,,2013-05-18 17:22:00,
2013-05-18 13:33:00,62.0,47.0,30.17,SSE,153,3.0,8.0,57,0.00,,,0.00,,2013-05-18 17:33:00,
2013-05-18 13:42:00,62.0,47.0,30.17,SSE,153,3.0,8.0,57,0.00,,,0.00,,2013-05-18 17:42:00,
2013-05-18 13:52:00,62.0,47.0,30.17,SSE,155,2.0,7.0,58,0.00,,,0.00,,2013-05-18 17:52:00,
2013-05-18 14:01:00,62.0,47.0,30.17,South,183,2.0,5.0,59,0.00,,,0.00,,2013-05-18 18:01:00,
2013-05-18 14:12:00,62.0,47.0,30.17,South,183,2.0,5.0,59,0.00,,,0.00,,2013-05-18 18:12:00,
2013-05-18 14:21:00,62.0,47.0,30.17,South,172,1.0,12.0,59,0.00,,,0.00,,2013-05-18 18:21:00,
2013-05-18 14:32:00,63.0,48.0,30.16,SSE,148,5.0,8.0,57,0.00,,,0.00,,2013-05-18 18:32:00,
2013-05-18 14:42:00,63.0,48.0,30.16,SSE,148,5.0,8.0,57,0.00,,,0.00,,2013-05-18 18:42:00,
2013-05-18 14:52:00,63.0,48.0,30.16,SSE,164,3.0,8.0,58,0.00,,,0.00,,2013-05-18 18:52:00,
2013-05-18 15:02:00,63.0,48.0,30.16,South,170,4.0,8.0,59,0.00,,,0.00,,2013-05-18 19:02:00,
2013-05-18 15:12:00,63.0,48.0,30.16,South,170,4.0,8.0,59,0.00,,,0.00,,2013-05-18 19:12:00,
2013-05-18 15:22:00,63.0,48.0,30.16,SE,131,5.0,11.0,59,0.00,,,0.00,,2013-05-18 19:22:00,
2013-05-18 15:32:00,62.0,48.0,30.15,SSW,200,5.0,10.0,61,0.00,,,0.00,,2013-05-18 19:32:00,
2013-05-18 15:42:00,62.0,48.0,30.15,SSW,200,5.0,10.0,61,0.00,,,0.00,,2013-05-18 19:42:00,
2013-05-18 15:52:00,62.0,49.0,30.16,South,187,6.0,11.0,63,0.00,,,0.00,,2013-05-18 19:52:00,
2013-05-18 16:02:00,62.0,49.0,30.15,SE,129,6.0,10.0,63,0.00,,,0.00,,2013-05-18 20:02:00,
2013-05-18 16:11:00,62.0,49.0,30.15,SE,129,6.0,10.0,63,0.00,,,0.00,,2013-05-18 20:11:00,
2013-05-18 16:22:00,63.0,50.0,30.15,SSE,157,8.0,15.0,62,0.00,,,0.00,,2013-05-18 20:22:00,
2013-05-18 16:32:00,63.0,50.0,30.15,SE,145,3.0,11.0,63,0.00,,,0.00,,2013-05-18 20:32:00,
2013-05-18 16:42:00,63.0,50.0,30.15,SE,145,3.0,11.0,63,0.00,,,0.00,,2013-05-18 20:42:00,
2013-05-18 16:52:00,64.0,50.0,30.15,SSE,152,3.0,12.0,61,0.00,,,0.00,,2013-05-18 20:52:00,
2013-05-18 17:01:00,63.0,49.0,30.14,South,174,4.0,11.0,61,0.00,,,0.00,,2013-05-18 21:01:00,
2013-05-18 17:12:00,63.0,49.0,30.14,South,174,4.0,11.0,61,0.00,,,0.00,,2013-05-18 21:12:00,
2013-05-18 17:22:00,63.0,50.0,30.15,SSW,193,5.0,11.0,63,0.00,,,0.00,,2013-05-18 21:22:00,
2013-05-18 17:33:00,62.0,50.0,30.15,SE,137,4.0,11.0,64,0.00,,,0.00,,2013-05-18 21:33:00,
2013-05-18 17:43:00,62.0,50.0,30.15,SE,137,4.0,11.0,64,0.00,,,0.00,,2013-05-18 21:43:00,
2013-05-18 17:53:00,62.0,50.0,30.14,SSE,158,5.0,10.0,64,0.00,,,0.00,,2013-05-18 21:53:00,
2013-05-18 18:03:00,62.0,50.0,30.15,South,170,4.0,13.0,65,0.00,,,0.00,,2013-05-18 22:03:00,
2013-05-18 18:13:00,62.0,50.0,30.15,South,170,4.0,13.0,65,0.00,,,0.00,,2013-05-18 22:13:00,
2013-05-18 18:23:00,61.0,50.0,30.15,South,173,2.0,10.0,66,0.00,,,0.00,,2013-05-18 22:23:00,
2013-05-18 18:33:00,62.0,51.0,30.15,SE,145,4.0,9.0,66,0.00,,,0.00,,2013-05-18 22:33:00,
2013-05-18 18:42:00,61.0,50.0,30.15,SSE,158,5.0,12.0,66,0.00,,,0.00,,2013-05-18 22:42:00,
2013-05-18 18:52:00,61.0,50.0,30.15,SSE,158,5.0,12.0,66,0.00,,,0.00,,2013-05-18 22:52:00,
2013-05-18 19:02:00,61.0,50.0,30.15,South,179,6.0,15.0,68,0.00,,,0.00,,2013-05-18 23:02:00,
2013-05-18 19:12:00,61.0,50.0,30.15,South,179,6.0,15.0,68,0.00,,,0.00,,2013-05-18 23:12:00,
2013-05-18 19:22:00,61.0,51.0,30.16,SSE,166,5.0,13.0,69,0.00,,,0.00,,2013-05-18 23:22:00,
2013-05-18 19:32:00,61.0,51.0,30.16,South,176,3.0,9.0,70,0.00,,,0.00,,2013-05-18 23:32:00,
2013-05-18 19:42:00,61.0,51.0,30.16,South,176,3.0,9.0,70,0.00,,,0.00,,2013-05-18 23:42:00,
2013-05-18 19:53:00,60.0,50.0,30.16,SSW,202,5.0,10.0,70,0.00,,,0.00,,2013-05-18 23:53:00,
2013-05-18 20:01:00,60.0,50.0,30.16,South,170,6.0,10.0,70,0.00,,,0.00,,2013-05-19 00:01:00,
2013-05-18 20:12:00,60.0,50.0,30.16,South,170,6.0,10.0,70,0.00,,,0.00,,2013-05-19 00:12:00,
2013-05-18 20:22:00,60.0,50.0,30.16,SE,143,4.0,13.0,70,0.00,,,0.00,,2013-05-19 00:22:00,
2013-05-18 20:32:00,60.0,51.0,30.16,SSE,153,3.0,10.0,71,0.00,,,0.00,,2013-05-19 00:32:00,
2013-05-18 20:41:00,60.0,51.0,30.16,SSE,153,3.0,10.0,71,0.00,,,0.00,,2013-05-19 00:41:00,
2013-05-18 20:52:00,60.0,51.0,30.16,South,179,3.0,11.0,71,0.00,,,0.00,,2013-05-19 00:52:00,
2013-05-18 21:01:00,60.0,51.0,30.16,SSE,150,6.0,10.0,72,0.00,,,0.00,,2013-05-19 01:01:00,
2013-05-18 21:11:00,60.0,51.0,30.16,SSE,150,6.0,10.0,72,0.00,,,0.00,,2013-05-19 01:11:00,
2013-05-18 21:22:00,59.0,50.0,30.16,SE,141,5.0,11.0,72,0.00,,,0.00,,2013-05-19 01:22:00,
2013-05-18 21:32:00,59.0,50.0,30.16,SSE,167,5.0,11.0,73,0.00,,,0.00,,2013-05-19 01:32:00,
2013-05-18 21:42:00,59.0,50.0,30.16,SSE,167,5.0,11.0,73,0.00,,,0.00,,2013-05-19 01:42:00,
2013-05-18 21:52:00,59.0,51.0,30.17,SSW,197,4.0,12.0,74,0.00,,,0.00,,2013-05-19 01:52:00,
2013-05-18 22:02:00,59.0,51.0,30.17,SSE,167,6.0,15.0,74,0.00,,,0.00,,2013-05-19 02:02:00,
2013-05-18 22:11:00,59.0,51.0,30.17,SSE,167,6.0,15.0,74,0.00,,,0.00,,2013-05-19 02:11:00,
2013-05-18 22:22:00,59.0,51.0,30.17,SSW,193,7.0,15.0,74,0.00,,,0.00,,2013-05-19 02:22:00,
2013-05-18 22:32:00,59.0,51.0,30.17,SSE,162,7.0,13.0,75,0.00,,,0.00,,2013-05-19 02:32:00,
2013-05-18 22:42:00,59.0,51.0,30.17,SSE,162,7.0,13.0,75,0.00,,,0.00,,2013-05-19 02:42:00,
2013-05-18 22:52:00,58.0,50.0,30.18,ESE,111,5.0,12.0,76,0.00,,,0.00,,2013-05-19 02:52:00,
2013-05-18 23:01:00,58.0,51.0,30.18,South,180,7.0,15.0,77,0.00,,,0.00,,2013-05-19 03:01:00,
2013-05-18 23:11:00,58.0,51.0,30.18,South,180,7.0,15.0,77,0.00,,,0.00,,2013-05-19 03:11:00,
2013-05-18 23:22:00,58.0,51.0,30.18,SE,136,6.0,13.0,78,0.00,,,0.00,,2013-05-19 03:22:00,
2013-05-18 23:33:00,57.0,51.0,30.17,South,191,8.0,16.0,79,0.00,,,0.00,,2013-05-19 03:33:00,
2013-05-18 23:42:00,57.0,51.0,30.17,South,191,8.0,16.0,79,0.00,,,0.00,,2013-05-19 03:42:00,
2013-05-18 23:53:00,57.0,51.0,30.17,SSW,197,3.0,12.0,80,0.00,,,0.00,,2013-05-19 03:53:00,